PVK weather

Aktion National Airport
Preveza/Lefkada, Preveza, Greece

Public forecast

Using degrees Celsius for public forecast. Weather courtesy of forecast.io.

Current aviation weather report (METAR) for Aktion National Airport

Retrieved 2019/12/16 09:20 UTC (39 minutes ago):

LGPZ 160920Z 05008KT 9999 FEW025 14/11 Q1027

Aviation forecast (TAF) for Aktion National Airport

Retrieved 2019/12/16 06:16 UTC (4 hours ago):

TAF LGPZ 160500Z 1606/1706 08010KT 9999 FEW020 PROB30 1606/1608 5000 BR SCT008